createdAt,value
2024-04-19T00:03:33.586Z,2.98
2024-04-19T00:08:38.586Z,2.95
2024-04-19T00:13:43.482Z,2.90
2024-04-19T00:18:48.489Z,2.84
2024-04-19T00:23:53.442Z,2.60
2024-04-19T00:28:58.343Z,2.49
2024-04-19T00:34:03.419Z,2.59
2024-04-19T00:39:08.412Z,2.61
2024-04-19T00:44:13.382Z,2.64
2024-04-19T00:49:18.298Z,2.65
2024-04-19T00:54:23.583Z,2.67
2024-04-19T00:59:28.527Z,2.88
2024-04-19T01:04:33.607Z,2.94
2024-04-19T01:09:38.552Z,2.95
2024-04-19T01:14:43.499Z,2.98
2024-04-19T01:19:48.436Z,3.05
2024-04-19T01:24:55.710Z,2.79
2024-04-19T01:30:00.826Z,2.76
2024-04-19T01:35:06.330Z,2.70
2024-04-19T01:40:11.773Z,2.71
2024-04-19T01:45:16.657Z,2.70
2024-04-19T01:50:21.496Z,2.62
2024-04-19T01:55:26.918Z,2.55
2024-04-19T02:00:32.096Z,2.53
2024-04-19T02:05:37.506Z,2.45
2024-04-19T02:10:42.371Z,2.48
2024-04-19T02:15:47.271Z,2.46
2024-04-19T02:20:52.146Z,2.45
2024-04-19T02:25:57.486Z,2.24
2024-04-19T02:31:05.314Z,2.20
2024-04-19T02:36:11.059Z,2.21
2024-04-19T02:41:16.042Z,2.19
2024-04-19T02:46:21.374Z,2.22
2024-04-19T02:51:26.353Z,2.16
2024-04-19T02:56:31.281Z,2.15
2024-04-19T03:01:37.430Z,2.08
2024-04-19T03:06:42.262Z,2.15
2024-04-19T03:11:47.086Z,2.20
2024-04-19T03:16:55.554Z,2.16
2024-04-19T03:22:00.374Z,2.27
2024-04-19T03:27:08.366Z,2.28
2024-04-19T03:32:13.214Z,2.22
2024-04-19T03:37:18.116Z,2.28
2024-04-19T03:42:22.921Z,2.14
2024-04-19T03:47:27.786Z,2.22
2024-04-19T03:52:32.651Z,2.23
2024-04-19T03:57:37.477Z,2.27
2024-04-19T04:02:42.401Z,2.25
2024-04-19T04:07:47.313Z,2.24
2024-04-19T04:12:56.258Z,2.30
2024-04-19T04:18:03.502Z,2.33
2024-04-19T04:23:08.598Z,2.50
2024-04-19T04:28:13.394Z,2.44
2024-04-19T04:33:18.278Z,2.58
2024-04-19T04:38:23.118Z,2.56
2024-04-19T04:43:27.986Z,2.55
2024-04-19T04:48:32.834Z,2.50
2024-04-19T04:53:37.870Z,2.49
2024-04-19T04:58:42.736Z,2.51
2024-04-19T05:03:51.374Z,2.51
2024-04-19T05:08:56.310Z,2.53
2024-04-19T05:14:01.161Z,2.52
2024-04-19T05:19:06.005Z,2.64
2024-04-19T05:24:11.027Z,2.48
2024-04-19T05:29:16.475Z,2.55
2024-04-19T05:34:21.359Z,2.69
2024-04-19T05:39:26.199Z,2.66
2024-04-19T05:44:32.710Z,2.74
2024-04-19T05:49:37.723Z,2.60
2024-04-19T05:54:42.623Z,2.70
2024-04-19T05:59:47.452Z,2.93
2024-04-19T06:04:52.256Z,2.88
2024-04-19T06:09:57.151Z,2.98
2024-04-19T06:15:02.009Z,3.03
2024-04-19T06:20:06.942Z,3.14
2024-04-19T06:25:13.064Z,3.22
2024-04-19T06:30:17.967Z,3.16
2024-04-19T06:35:23.368Z,3.30
2024-04-19T06:40:28.429Z,3.41
2024-04-19T06:45:38.288Z,3.36
2024-04-19T06:50:43.170Z,3.57
2024-04-19T06:55:49.307Z,3.66
2024-04-19T07:01:08.979Z,3.72
2024-04-19T07:06:24.207Z,3.91
2024-04-19T07:11:36.018Z,3.89
2024-04-19T07:16:43.303Z,4.03
2024-04-19T07:21:48.347Z,4.08
2024-04-19T07:26:53.488Z,4.16
2024-04-19T07:31:58.286Z,4.25
2024-04-19T07:37:03.124Z,4.41
2024-04-19T07:42:08.063Z,4.52
2024-04-19T07:47:13.050Z,4.99
2024-04-19T07:52:17.840Z,5.00
2024-04-19T07:57:22.774Z,5.29
2024-04-19T08:02:27.695Z,5.56
2024-04-19T08:07:39.789Z,5.77
2024-04-19T08:12:45.503Z,5.46
2024-04-19T08:17:52.169Z,5.71
2024-04-19T08:22:57.141Z,5.24
2024-04-19T08:28:02.052Z,4.83
2024-04-19T08:33:07.180Z,4.55
2024-04-19T08:38:12.146Z,4.68
2024-04-19T08:43:18.981Z,4.56
2024-04-19T08:48:24.011Z,4.69
2024-04-19T08:53:29.984Z,4.76
2024-04-19T08:58:34.822Z,4.68
2024-04-19T09:03:39.944Z,4.47
2024-04-19T09:08:45.613Z,4.57
2024-04-19T09:13:50.462Z,4.65
2024-04-19T09:18:55.281Z,4.49
2024-04-19T09:24:00.210Z,4.51
2024-04-19T09:29:06.242Z,4.62
2024-04-19T09:34:11.631Z,4.53
2024-04-19T09:39:17.885Z,4.41
2024-04-19T09:44:27.456Z,4.31
2024-04-19T09:49:35.037Z,4.08
2024-04-19T09:54:44.166Z,4.09
2024-04-19T09:59:49.677Z,4.22
2024-04-19T10:04:54.740Z,4.33
2024-04-19T10:10:00.306Z,4.50
2024-04-19T10:15:05.415Z,4.45
2024-04-19T10:20:12.799Z,4.65
2024-04-19T10:25:17.586Z,4.45
2024-04-19T10:30:28.138Z,4.36
2024-04-19T10:35:46.574Z,4.15
2024-04-19T10:40:51.367Z,4.48
2024-04-19T10:45:56.295Z,4.48
2024-04-19T10:51:05.045Z,4.45
2024-04-19T10:56:10.486Z,4.28
2024-04-19T11:01:15.339Z,4.37
2024-04-19T11:06:21.636Z,4.30
2024-04-19T11:11:26.795Z,4.35
2024-04-19T11:16:31.711Z,4.10
2024-04-19T11:21:36.953Z,4.24
2024-04-19T11:26:42.154Z,4.08
2024-04-19T11:31:46.964Z,4.12
2024-04-19T11:36:51.814Z,3.84
2024-04-19T11:41:56.813Z,3.87
2024-04-19T11:47:08.231Z,3.98
2024-04-19T11:52:13.091Z,3.89
2024-04-19T11:57:17.931Z,4.12
2024-04-19T12:02:22.990Z,3.93
2024-04-19T12:07:28.100Z,4.03
2024-04-19T12:13:09.858Z,3.99
2024-04-19T12:18:00.238Z,3.99
2024-04-19T12:23:07.873Z,4.03
2024-04-19T12:28:13.703Z,4.05
2024-04-19T12:33:19.053Z,4.06
2024-04-19T12:38:26.040Z,4.05
2024-04-19T12:43:31.030Z,4.04
2024-04-19T12:48:35.959Z,4.04
2024-04-19T12:53:40.879Z,3.99
2024-04-19T12:58:46.249Z,3.85
2024-04-19T13:03:52.118Z,3.87
2024-04-19T13:08:57.240Z,3.91
2024-04-19T13:14:02.031Z,3.94
2024-04-19T13:19:07.162Z,3.72
2024-04-19T13:24:12.037Z,3.80
2024-04-19T13:29:17.005Z,3.91
2024-04-19T13:34:21.852Z,3.83
2024-04-19T13:39:26.951Z,3.96
2024-04-19T13:44:32.104Z,3.91
2024-04-19T13:49:36.965Z,3.90
2024-04-19T13:54:41.891Z,3.93
2024-04-19T13:59:46.737Z,3.96
2024-04-19T14:04:51.566Z,4.04
2024-04-19T14:09:56.482Z,3.89
2024-04-19T14:15:01.523Z,3.92
2024-04-19T14:20:06.546Z,3.87
2024-04-19T14:25:13.866Z,3.97
2024-04-19T14:30:18.820Z,3.78
2024-04-19T14:35:24.940Z,3.97
2024-04-19T14:40:31.871Z,3.96
2024-04-19T14:45:38.223Z,3.69
2024-04-19T14:50:43.087Z,3.92
2024-04-19T14:55:48.118Z,3.85
2024-04-19T15:00:53.282Z,3.92
2024-04-19T15:06:55.082Z,3.94
2024-04-19T15:12:00.729Z,3.83
2024-04-19T15:17:06.333Z,3.83
2024-04-19T15:22:11.197Z,3.98
2024-04-19T15:27:15.997Z,4.00
2024-04-19T15:32:20.857Z,3.85
2024-04-19T15:37:25.673Z,3.99
2024-04-19T15:42:30.654Z,3.96
2024-04-19T15:47:35.783Z,4.07
2024-04-19T15:52:40.638Z,4.06
2024-04-19T15:57:45.618Z,3.92
2024-04-19T16:02:50.483Z,4.01
2024-04-19T16:07:55.797Z,3.99
2024-04-19T16:13:00.874Z,3.98
2024-04-19T16:18:06.422Z,4.00
2024-04-19T16:23:11.242Z,4.00
2024-04-19T16:28:16.033Z,3.74
2024-04-19T16:33:20.940Z,3.93
2024-04-19T16:38:25.966Z,3.97
2024-04-19T16:43:30.770Z,3.99
2024-04-19T16:48:35.615Z,3.83
2024-04-19T16:53:40.516Z,3.77
2024-04-19T16:58:45.431Z,3.82
2024-04-19T17:03:50.958Z,3.86
2024-04-19T17:08:56.057Z,3.80
2024-04-19T17:14:00.850Z,3.79
2024-04-19T17:19:05.747Z,3.86
2024-04-19T17:24:10.797Z,3.87
2024-04-19T17:29:15.588Z,3.67
2024-04-19T17:34:21.091Z,3.43
2024-04-19T17:39:26.003Z,3.69
2024-04-19T17:44:34.740Z,3.54
2024-04-19T17:49:40.297Z,3.53
2024-04-19T17:54:45.619Z,3.67
2024-04-19T17:59:50.400Z,3.73
2024-04-19T18:04:55.272Z,3.84
2024-04-19T18:10:00.249Z,3.91
2024-04-19T18:15:08.874Z,3.89
2024-04-19T18:20:13.880Z,3.97
2024-04-19T18:25:18.812Z,3.95
2024-04-19T18:30:23.654Z,3.94
2024-04-19T18:35:30.616Z,3.94
2024-04-19T18:40:36.682Z,4.04
2024-04-19T18:45:42.874Z,3.89
2024-04-19T18:50:47.815Z,3.80
2024-04-19T18:55:52.622Z,3.78
2024-04-19T19:00:57.485Z,3.88
2024-04-19T19:06:02.338Z,3.87
2024-04-19T19:11:15.215Z,3.83
2024-04-19T19:16:20.108Z,3.89
2024-04-19T19:21:26.086Z,3.82
2024-04-19T19:26:31.964Z,3.90
2024-04-19T19:31:37.397Z,3.69
2024-04-19T19:36:43.229Z,3.77
2024-04-19T19:41:48.133Z,3.45
2024-04-19T19:46:53.106Z,3.32
2024-04-19T19:51:58.019Z,3.22
2024-04-19T19:57:03.011Z,2.93
2024-04-19T20:02:24.198Z,2.72
2024-04-19T20:07:29.237Z,2.58
2024-04-19T20:12:35.366Z,2.49
2024-04-19T20:17:40.330Z,2.57
2024-04-19T20:22:45.199Z,2.41
2024-04-19T20:27:50.451Z,2.19
2024-04-19T20:32:55.393Z,1.93
2024-04-19T20:38:00.241Z,1.86
2024-04-19T20:43:15.337Z,1.75
2024-04-19T20:48:25.271Z,1.62
2024-04-19T20:53:30.240Z,1.75
2024-04-19T20:58:35.052Z,1.91
2024-04-19T21:03:39.972Z,1.86
2024-04-19T21:08:44.957Z,1.75
2024-04-19T21:13:49.757Z,1.89
2024-04-19T21:18:54.628Z,1.45
2024-04-19T21:23:59.479Z,1.43
2024-04-19T21:29:04.373Z,1.43
2024-04-19T21:34:09.323Z,1.43
2024-04-19T21:39:14.822Z,1.36
2024-04-19T21:44:19.660Z,1.34
2024-04-19T21:49:24.442Z,1.34
2024-04-19T21:54:29.282Z,1.31
2024-04-19T21:59:34.204Z,1.15
2024-04-19T22:04:39.134Z,1.14
2024-04-19T22:09:44.026Z,1.44
2024-04-19T22:14:48.899Z,1.63
2024-04-19T22:19:55.981Z,1.56
2024-04-19T22:25:00.861Z,1.52
2024-04-19T22:30:05.725Z,1.54
2024-04-19T22:35:10.771Z,1.61
2024-04-19T22:40:15.591Z,1.66
2024-04-19T22:45:20.424Z,1.70
2024-04-19T22:50:25.212Z,1.77
2024-04-19T22:55:30.001Z,1.86
2024-04-19T23:00:35.664Z,1.86
2024-04-19T23:05:40.534Z,1.86
2024-04-19T23:10:45.317Z,1.96
2024-04-19T23:15:50.187Z,1.97
2024-04-19T23:21:05.605Z,1.99
2024-04-19T23:26:12.467Z,2.01
2024-04-19T23:31:18.852Z,2.05
2024-04-19T23:36:23.626Z,2.02
2024-04-19T23:41:28.421Z,1.95
2024-04-19T23:46:33.254Z,1.96
2024-04-19T23:51:38.099Z,2.01
2024-04-19T23:56:43.000Z,2.02
